Time;durP1;ratioP1;P1;durP2;ratioP2;P2;SDS_P1;SDS_P2;PMS_P1;PMS_P2;Temp;Humidity;BMP_temperature;BMP_pressure;BME280_temperature;BME280_humidity;BME280_pressure;Samples;Min_cycle;Max_cycle;Signal;HPM_P1;HPM_P2
2023/07/04 00:01:06;;;;;;;20.20;11.00;;;;;;;25.77;42.57;99989.04;109385;1254;60675;-85
2023/07/04 00:03:34;;;;;;;25.20;11.40;;;;;;;25.85;42.36;99991.13;109100;1254;74864;-84
2023/07/04 00:06:04;;;;;;;11.90;9.30;;;;;;;25.93;41.98;99996.23;108587;1254;69148;-84
2023/07/04 00:08:33;;;;;;;17.90;10.80;;;;;;;26.07;41.92;99997.34;109356;1254;71569;-85
2023/07/04 00:11:02;;;;;;;15.30;11.40;;;;;;;26.22;41.70;99999.02;108472;1254;60908;-83
2023/07/04 00:13:32;;;;;;;19.90;11.20;;;;;;;26.29;41.32;100000.13;108027;1253;59510;-84
2023/07/04 00:16:00;;;;;;;20.90;11.60;;;;;;;26.01;41.66;100002.65;108038;1253;74063;-84
2023/07/04 00:18:28;;;;;;;18.40;11.50;;;;;;;25.61;42.47;100004.42;108044;1254;70118;-84
2023/07/04 00:20:58;;;;;;;23.70;11.60;;;;;;;25.79;42.06;100002.73;107936;1254;72277;-84
2023/07/04 00:23:27;;;;;;;17.30;11.10;;;;;;;25.96;41.62;100003.88;107960;1254;62143;-82
2023/07/04 00:25:55;;;;;;;14.30;9.50;;;;;;;25.92;41.58;100007.16;107852;1254;60543;-84
2023/07/04 00:28:23;;;;;;;18.90;11.20;;;;;;;26.03;41.66;100013.17;107906;1254;74739;-83
2023/07/04 00:30:52;;;;;;;20.40;11.20;;;;;;;26.03;41.63;100011.73;107853;1254;68799;-83
2023/07/04 00:33:21;;;;;;;11.50;9.40;;;;;;;26.08;41.47;100003.35;107891;1254;72681;-84
2023/07/04 00:35:49;;;;;;;21.30;12.10;;;;;;;25.97;41.68;100002.67;108127;1256;61984;-82
2023/07/04 00:38:19;;;;;;;17.80;11.10;;;;;;;25.95;41.55;100010.69;107968;1254;60446;-84
2023/07/04 00:40:50;;;;;;;20.10;11.70;;;;;;;26.02;41.65;100026.42;108032;1252;72618;-83
2023/07/04 00:43:18;;;;;;;18.00;12.50;;;;;;;26.02;41.88;100029.16;107881;1258;68847;-84
2023/07/04 00:45:52;;;;;;;21.30;11.20;;;;;;;26.01;41.78;100024.80;107911;1258;71924;-84
2023/07/04 00:48:20;;;;;;;22.10;12.20;;;;;;;25.98;41.94;100029.02;107875;1254;60625;-82
2023/07/04 00:50:49;;;;;;;18.20;11.90;;;;;;;25.85;42.06;100031.39;108169;1251;60444;-84
2023/07/04 00:53:17;;;;;;;20.80;10.80;;;;;;;25.91;42.09;100032.07;108652;1251;73832;-83
2023/07/04 00:55:48;;;;;;;22.60;12.20;;;;;;;25.98;42.17;100028.85;109366;1251;69634;-83
2023/07/04 00:58:16;;;;;;;18.50;10.30;;;;;;;25.97;42.24;100028.75;108340;1256;70170;-85
2023/07/04 01:00:44;;;;;;;19.80;12.50;;;;;;;26.03;42.31;100027.40;109235;1251;61830;-85
2023/07/04 01:03:13;;;;;;;17.80;12.70;;;;;;;25.98;42.17;100029.02;108426;1251;60434;-83
2023/07/04 01:05:43;;;;;;;20.50;13.00;;;;;;;25.79;42.47;100028.77;108636;1256;74030;-81
2023/07/04 01:08:32;;;;;;;24.60;13.30;;;;;;;25.87;42.27;100033.70;109449;1251;69027;-84
2023/07/04 01:11:03;;;;;;;19.80;12.30;;;;;;;25.85;42.25;100033.23;109229;1251;72906;-84
2023/07/04 01:13:35;;;;;;;16.90;12.20;;;;;;;25.86;42.19;100035.13;108064;1254;62151;-85
2023/07/04 01:16:10;;;;;;;19.60;13.10;;;;;;;25.86;42.16;100033.63;108043;1253;60444;-84
2023/07/04 01:18:39;;;;;;;20.30;12.40;;;;;;;25.78;42.36;100032.14;108088;1254;73825;-84
2023/07/04 01:21:06;;;;;;;19.20;12.70;;;;;;;25.71;42.17;100034.13;109402;1254;68862;-83
2023/07/04 01:23:59;;;;;;;24.50;12.20;;;;;;;25.67;42.32;100034.14;109372;1253;73014;-84
2023/07/04 01:26:31;;;;;;;20.10;12.50;;;;;;;25.60;42.41;100038.43;108856;1254;60470;-85
2023/07/04 01:29:00;;;;;;;17.80;12.20;;;;;;;25.46;42.82;100041.15;108125;1254;60490;-85
2023/07/04 01:31:30;;;;;;;18.80;12.40;;;;;;;25.39;42.85;100043.30;108421;1254;73761;-83
2023/07/04 01:33:58;;;;;;;13.10;10.50;;;;;;;25.39;42.96;100044.05;107901;1254;70438;-84
2023/07/04 01:36:28;;;;;;;21.30;12.50;;;;;;;25.51;42.84;100048.87;108124;1254;71571;-82
2023/07/04 01:38:55;;;;;;;18.70;13.30;;;;;;;25.50;42.81;100047.15;108300;1257;62766;-86
2023/07/04 01:41:24;;;;;;;17.10;11.70;;;;;;;25.54;42.82;100049.44;108765;1252;59522;-83
2023/07/04 01:43:59;;;;;;;19.10;12.70;;;;;;;25.55;42.99;100049.94;108362;1254;73850;-84
2023/07/04 01:46:27;;;;;;;16.00;10.80;;;;;;;25.55;42.93;100049.02;108129;1254;68922;-83
2023/07/04 01:48:55;;;;;;;16.50;11.20;;;;;;;25.33;43.27;100050.86;108075;1254;72922;-83
2023/07/04 01:51:25;;;;;;;20.00;12.40;;;;;;;25.18;43.72;100048.38;108244;1257;62027;-82
2023/07/04 01:53:54;;;;;;;18.20;11.30;;;;;;;25.15;43.84;100051.61;108269;1254;60183;-85
2023/07/04 01:56:22;;;;;;;21.00;13.10;;;;;;;25.08;44.06;100049.16;108990;1254;74452;-83
2023/07/04 01:58:50;;;;;;;19.10;12.50;;;;;;;25.07;44.12;100048.36;108762;1254;72001;-84
2023/07/04 02:01:17;;;;;;;20.50;12.30;;;;;;;25.05;44.11;100056.65;107981;1254;71426;-83
2023/07/04 02:03:45;;;;;;;24.10;13.00;;;;;;;25.09;44.08;100062.90;108216;1252;60752;-83
2023/07/04 02:06:16;;;;;;;16.50;11.60;;;;;;;24.97;44.32;100064.14;109036;1253;60059;-83
2023/07/04 02:08:44;;;;;;;24.70;13.50;;;;;;;24.73;44.94;100066.52;109201;1254;72587;-83
2023/07/04 02:11:12;;;;;;;21.20;14.30;;;;;;;24.77;44.78;100068.41;108089;1254;70534;-84
2023/07/04 02:13:40;;;;;;;20.50;12.90;;;;;;;24.66;45.01;100071.13;107970;1254;71221;-83
2023/07/04 02:16:08;;;;;;;21.50;13.60;;;;;;;24.69;45.01;100072.92;109163;1254;61716;-84
2023/07/04 02:18:35;;;;;;;25.10;12.00;;;;;;;24.61;45.06;100077.73;107880;1253;60628;-83
2023/07/04 02:21:03;;;;;;;17.70;13.00;;;;;;;24.71;44.88;100081.70;108272;1255;72661;-85
2023/07/04 02:23:31;;;;;;;26.30;14.00;;;;;;;24.80;44.71;100083.23;108525;1254;70223;-84
2023/07/04 02:25:58;;;;;;;15.70;11.30;;;;;;;24.78;44.56;100084.63;108070;1256;72735;-83
2023/07/04 02:28:25;;;;;;;26.00;14.40;;;;;;;24.70;44.74;100087.23;108114;1253;62631;-83
2023/07/04 02:30:54;;;;;;;24.10;14.30;;;;;;;24.95;44.41;100086.05;107883;1258;60373;-85
2023/07/04 02:33:22;;;;;;;15.80;11.50;;;;;;;25.23;43.99;100080.48;109261;1253;72333;-83
2023/07/04 02:35:50;;;;;;;20.80;14.90;;;;;;;24.78;44.71;100077.48;107977;1254;69184;-83
2023/07/04 02:38:19;;;;;;;22.10;12.60;;;;;;;24.56;45.29;100077.70;108494;1253;71329;-84
2023/07/04 02:40:47;;;;;;;24.80;14.60;;;;;;;24.84;44.92;100079.27;107836;1254;60426;-83
2023/07/04 02:43:15;;;;;;;24.20;13.90;;;;;;;25.02;44.64;100078.23;107989;1254;60385;-85
2023/07/04 02:45:42;;;;;;;21.40;13.80;;;;;;;25.14;44.51;100078.29;108588;1254;73950;-84
2023/07/04 02:48:11;;;;;;;24.20;14.50;;;;;;;25.24;44.36;100079.07;109288;1251;69118;-83
2023/07/04 02:50:38;;;;;;;21.60;13.70;;;;;;;25.30;44.29;100084.56;109172;1255;71417;-84
2023/07/04 02:53:06;;;;;;;18.40;13.10;;;;;;;25.36;44.42;100084.24;108095;1257;61251;-85
2023/07/04 02:55:34;;;;;;;22.30;15.70;;;;;;;25.47;44.30;100081.50;107986;1251;60334;-83
2023/07/04 02:58:02;;;;;;;18.90;12.50;;;;;;;25.57;44.26;100081.88;108044;1251;73068;-84
2023/07/04 03:00:30;;;;;;;19.90;14.70;;;;;;;25.76;44.11;100080.36;108034;1251;69802;-83
2023/07/04 03:02:58;;;;;;;26.60;14.00;;;;;;;25.98;43.82;100081.70;107917;1254;71368;-84
2023/07/04 03:05:26;;;;;;;19.30;13.60;;;;;;;26.16;43.44;100082.23;107720;1255;60379;-84
2023/07/04 03:07:54;;;;;;;22.10;13.60;;;;;;;26.19;43.56;100081.88;107933;1257;60729;-85
2023/07/04 03:10:21;;;;;;;17.80;12.40;;;;;;;26.18;43.63;100086.50;107924;1254;74062;-84
2023/07/04 03:12:49;;;;;;;16.30;11.70;;;;;;;26.32;43.59;100092.83;107884;1259;70664;-85
2023/07/04 03:15:17;;;;;;;21.20;12.50;;;;;;;26.46;43.25;100094.01;108002;1254;72743;-83
2023/07/04 03:17:48;;;;;;;20.90;13.40;;;;;;;26.57;43.20;100097.79;108684;1256;61755;-84
2023/07/04 03:20:17;;;;;;;25.60;13.60;;;;;;;26.73;43.07;100095.54;109250;1247;87402;-95
2023/07/04 03:22:53;;;;;;;25.60;13.10;;;;;;;26.89;42.72;100093.25;108495;1256;75267;-94
2023/07/04 03:25:22;;;;;;;16.90;12.60;;;;;;;27.06;42.56;100102.11;109033;1256;69841;-93
2023/07/04 03:27:55;;;;;;;21.30;12.60;;;;;;;27.17;42.43;100102.94;108139;1257;73121;-93
2023/07/04 03:30:34;;;;;;;18.30;12.10;;;;;;;27.35;42.20;100100.69;108327;1261;61743;-95
2023/07/04 03:33:07;;;;;;;22.50;13.40;;;;;;;27.17;42.48;100102.02;108113;1260;60297;-95
2023/07/04 03:35:38;;;;;;;27.60;12.50;;;;;;;27.31;42.38;100101.45;108232;1258;72872;-94
2023/07/04 03:38:28;;;;;;;15.00;11.30;;;;;;;27.57;41.70;100105.63;108961;1257;68426;-94
2023/07/04 03:40:58;;;;;;;14.70;8.90;;;;;;;27.55;41.73;100106.30;108316;1257;71923;-95
2023/07/04 03:43:29;;;;;;;20.10;11.90;;;;;;;27.26;42.54;100108.88;108445;1262;59725;-95
2023/07/04 03:46:00;;;;;;;21.90;10.60;;;;;;;27.52;42.17;100109.51;108579;1257;61344;-96
2023/07/04 03:48:29;;;;;;;19.50;12.10;;;;;;;27.75;41.98;100109.49;108327;1259;72645;-93
2023/07/04 03:51:01;;;;;;;18.60;12.70;;;;;;;28.03;41.43;100106.47;108790;1258;69047;-94
2023/07/04 03:53:30;;;;;;;16.50;11.90;;;;;;;28.41;40.66;100110.82;109249;1257;71600;-94
2023/07/04 03:55:58;;;;;;;16.20;11.40;;;;;;;28.68;40.18;100107.20;108432;1257;60593;-94
2023/07/04 03:58:28;;;;;;;14.00;10.50;;;;;;;28.93;39.62;100109.26;108176;1260;60512;-94
2023/07/04 04:01:06;;;;;;;17.60;12.40;;;;;;;29.18;39.31;100111.65;108369;1260;73909;-93
2023/07/04 04:03:39;;;;;;;20.20;11.60;;;;;;;29.43;38.76;100109.52;109040;1258;68735;-91
2023/07/04 04:06:20;;;;;;;16.10;12.30;;;;;;;29.88;38.09;100115.83;108148;1258;72924;-95
2023/07/04 04:08:52;;;;;;;20.10;11.80;;;;;;;30.22;37.83;100113.95;108344;1261;60937;-94
2023/07/04 04:11:23;;;;;;;18.40;11.30;;;;;;;30.83;36.87;100111.75;108682;1256;58939;-94
2023/07/04 04:14:04;;;;;;;16.20;11.20;;;;;;;31.26;35.94;100121.52;108956;1256;72870;-94
2023/07/04 04:16:49;;;;;;;16.60;10.90;;;;;;;31.32;35.89;100124.57;108578;1256;67962;-96
2023/07/04 04:19:20;;;;;;;14.60;10.30;;;;;;;31.54;35.28;100126.73;107916;1257;75215;-94
2023/07/04 04:22:03;;;;;;;18.10;11.00;;;;;;;31.82;34.88;100128.21;107805;1263;61139;-95
2023/07/04 04:24:36;;;;;;;14.80;9.20;;;;;;;32.12;34.13;100129.13;108171;1258;59152;-94
2023/07/04 04:27:19;;;;;;;14.50;9.70;;;;;;;32.14;33.76;100125.71;108193;1255;72929;-96
2023/07/04 04:29:58;;;;;;;14.50;9.50;;;;;;;32.44;33.22;100125.67;108092;1257;68430;-96
2023/07/04 04:32:45;;;;;;;15.60;10.30;;;;;;;32.77;32.62;100129.54;108277;1263;71234;-96
2023/07/04 04:35:47;;;;;;;18.40;10.10;;;;;;;33.11;32.04;100134.08;108314;1257;59606;-94
2023/07/04 04:38:18;;;;;;;16.80;10.10;;;;;;;33.21;31.87;100136.43;108254;1255;58803;-94
2023/07/04 04:40:50;;;;;;;18.50;9.60;;;;;;;33.63;31.40;100139.88;107995;1257;75216;-94
2023/07/04 04:43:19;;;;;;;;;;;;;;;33.94;31.23;100137.40;108316;1257;70130;-95
2023/07/04 04:45:50;;;;;;;18.10;9.50;;;;;;;34.24;30.75;100137.30;108431;1257;62435;-96
2023/07/04 04:48:29;;;;;;;16.20;9.50;;;;;;;34.56;30.06;100141.64;108737;1260;60285;-96
2023/07/04 04:52:02;;;;;;;15.90;9.40;;;;;;;34.75;29.52;100143.12;108691;1256;60070;-95
2023/07/04 04:54:47;;;;;;;15.40;8.90;;;;;;;34.77;29.28;100145.27;109013;1258;63645;-96
2023/07/04 04:57:27;;;;;;;17.90;9.10;;;;;;;34.47;29.51;100149.84;109056;1257;59660;-96
2023/07/04 05:00:08;;;;;;;19.50;8.70;;;;;;;34.61;28.94;100152.78;109156;1257;62454;-93
2023/07/04 05:03:00;;;;;;;17.00;8.90;;;;;;;34.76;28.52;100154.42;108414;1257;60444;-96
2023/07/04 05:05:32;;;;;;;15.20;8.20;;;;;;;34.67;28.43;100155.23;108419;1256;60477;-95
2023/07/04 05:08:12;;;;;;;;;;;;;;;35.02;27.93;100156.59;108572;1257;74841;-94
2023/07/04 05:11:13;;;;;;;15.90;8.00;;;;;;;35.37;26.78;100155.61;108902;1257;59481;-94
2023/07/04 05:14:23;;;;;;;21.80;7.40;;;;;;;35.87;26.05;100155.98;108691;1256;63917;-94
2023/07/04 05:17:28;;;;;;;12.10;7.10;;;;;;;36.15;24.88;100151.73;108774;1256;60376;-95
2023/07/04 05:20:37;;;;;;;14.20;6.20;;;;;;;36.07;23.94;100151.08;108412;1257;60438;-95
2023/07/04 05:23:37;;;;;;;13.70;6.10;;;;;;;36.22;23.62;100154.00;109227;1257;64515;-95
2023/07/04 05:26:25;;;;;;;15.10;6.80;;;;;;;36.40;23.57;100154.89;109265;1256;60661;-93
2023/07/04 05:29:22;;;;;;;13.20;5.70;;;;;;;36.56;22.57;100152.30;109219;1256;62573;-96
2023/07/04 05:32:08;;;;;;;15.30;6.00;;;;;;;36.56;22.61;100156.90;109486;1255;57629;-92
2023/07/04 05:34:41;;;;;;;12.00;5.50;;;;;;;36.80;22.95;100157.67;108926;1256;57950;-96
2023/07/04 05:37:24;;;;;;;14.90;6.30;;;;;;;37.14;22.66;100162.27;109337;1255;66318;-94
2023/07/04 05:40:06;;;;;;;12.80;5.70;;;;;;;37.25;22.55;100163.27;109163;1256;59676;-96
2023/07/04 05:42:37;;;;;;;18.00;6.10;;;;;;;37.01;22.41;100164.31;109134;1256;62718;-94
2023/07/04 05:45:14;;;;;;;17.30;5.70;;;;;;;36.99;22.70;100161.22;108993;1257;57911;-95
2023/07/04 05:47:49;;;;;;;9.60;5.50;;;;;;;37.30;22.54;100162.29;108795;1257;59196;-96
2023/07/04 05:50:38;;;;;;;12.40;6.10;;;;;;;37.44;21.76;100164.20;108400;1257;63936;-94
2023/07/04 05:53:17;;;;;;;14.20;5.30;;;;;;;37.52;21.54;100168.40;108632;1257;60308;-96
2023/07/04 05:56:17;;;;;;;16.90;6.70;;;;;;;37.62;21.50;100168.02;108696;1261;63423;-94
2023/07/04 05:58:51;;;;;;;14.20;5.90;;;;;;;37.92;21.50;100168.91;108309;1257;57740;-96
2023/07/04 06:01:41;;;;;;;11.00;5.50;;;;;;;38.01;21.02;100168.23;108446;1256;60381;-96
2023/07/04 06:04:13;;;;;;;9.70;5.10;;;;;;;37.69;21.50;100169.00;109077;1256;63648;-94
2023/07/04 06:07:13;;;;;;;13.60;5.90;;;;;;;37.87;21.29;100172.36;104711;1292;600956;-70
2023/07/04 06:09:40;;;;;;;10.70;5.60;;;;;;;37.49;21.24;100171.35;108294;1266;57295;-70
2023/07/04 06:12:08;;;;;;;15.60;6.60;;;;;;;37.70;21.20;100170.77;108259;1266;56957;-73
2023/07/04 06:14:37;;;;;;;10.50;5.80;;;;;;;37.84;20.92;100171.40;108302;1266;64637;-71
2023/07/04 06:17:04;;;;;;;10.10;5.90;;;;;;;37.94;20.65;100172.65;108287;1266;60215;-69
2023/07/04 06:19:32;;;;;;;9.70;5.20;;;;;;;37.46;20.50;100176.50;108135;1266;63705;-71
2023/07/04 06:22:03;;;;;;;9.10;4.80;;;;;;;37.08;20.83;100174.45;108264;1266;213874;-70
2023/07/04 06:24:30;;;;;;;;;;;;;;;37.52;20.69;100177.18;108422;1265;61654;-70
2023/07/04 06:26:58;;;;;;;13.20;6.00;;;;;;;37.91;20.06;100179.42;108430;1266;62911;-72
2023/07/04 06:29:25;;;;;;;13.80;6.40;;;;;;;38.03;19.79;100179.41;108419;1265;61821;-69
2023/07/04 06:31:53;;;;;;;10.50;5.60;;;;;;;38.07;20.76;100178.76;108329;1266;62442;-71
2023/07/04 06:34:20;;;;;;;13.70;6.40;;;;;;;38.32;20.93;100181.15;108243;1266;57705;-70
2023/07/04 06:36:50;;;;;;;15.90;6.30;;;;;;;39.04;20.39;100179.86;108398;1266;57827;-70
2023/07/04 06:39:18;;;;;;;12.70;6.70;;;;;;;39.28;20.09;100182.25;108436;1265;62915;-70
2023/07/04 06:41:46;;;;;;;10.60;5.80;;;;;;;38.64;20.75;100184.63;108423;1266;61410;-70
2023/07/04 06:44:13;;;;;;;9.30;5.80;;;;;;;38.00;21.60;100190.05;108443;1265;63864;-71
2023/07/04 06:46:41;;;;;;;10.70;6.40;;;;;;;38.19;21.25;100188.08;108593;1263;57706;-71
2023/07/04 06:49:08;;;;;;;18.00;6.50;;;;;;;38.66;20.83;100184.60;108676;1263;57312;-70
2023/07/04 06:51:36;;;;;;;12.80;6.00;;;;;;;38.88;20.64;100186.64;108648;1262;62841;-70
2023/07/04 06:54:03;;;;;;;14.20;6.20;;;;;;;38.78;20.21;100186.03;108853;1259;60106;-70
2023/07/04 06:56:31;;;;;;;12.10;6.10;;;;;;;38.70;20.06;100185.56;108227;1260;62716;-70
2023/07/04 06:58:58;;;;;;;17.90;7.20;;;;;;;38.84;19.98;100189.01;108774;1259;57719;-71
2023/07/04 07:01:29;;;;;;;13.40;6.20;;;;;;;39.33;19.33;100190.07;108845;1260;57249;-71
2023/07/04 07:03:57;;;;;;;10.50;5.70;;;;;;;39.36;19.52;100188.45;108809;1260;64153;-70
2023/07/04 07:06:25;;;;;;;8.70;5.80;;;;;;;39.46;19.48;100186.86;108799;1259;61414;-71
2023/07/04 07:08:53;;;;;;;10.50;5.80;;;;;;;39.51;19.21;100186.84;108771;1260;64145;-70
2023/07/04 07:11:21;;;;;;;13.10;6.50;;;;;;;39.34;19.21;100190.30;108775;1260;58279;-71
2023/07/04 07:13:49;;;;;;;12.50;5.80;;;;;;;39.57;19.13;100196.50;108854;1258;57411;-71
2023/07/04 07:16:21;;;;;;;12.90;6.80;;;;;;;40.04;18.79;100190.04;108831;1259;64097;-70
2023/07/04 07:18:50;;;;;;;10.10;6.40;;;;;;;39.94;18.63;100187.05;108826;1259;61371;-70
2023/07/04 07:21:20;;;;;;;25.00;7.40;;;;;;;40.27;18.71;100190.02;108765;1260;64870;-71
2023/07/04 07:23:48;;;;;;;9.60;5.60;;;;;;;40.72;17.98;100189.29;108804;1260;57628;-70
2023/07/04 07:26:22;;;;;;;12.90;5.70;;;;;;;40.37;17.79;100187.89;108811;1260;57666;-70
2023/07/04 07:28:50;;;;;;;8.80;5.90;;;;;;;40.37;17.76;100186.23;108811;1262;66573;-69
2023/07/04 07:31:20;;;;;;;13.60;6.70;;;;;;;40.93;17.87;100187.10;108809;1260;61770;-71
2023/07/04 07:33:48;;;;;;;13.30;6.30;;;;;;;41.05;17.29;100184.29;108826;1260;63878;-71
2023/07/04 07:39:27;;;;;;;9.50;5.90;;;;;;;39.60;18.20;100181.89;105342;1283;601490;-69
2023/07/04 07:41:54;;;;;;;9.90;5.70;;;;;;;41.12;16.72;100180.77;107299;1264;58863;-69
2023/07/04 07:44:22;;;;;;;12.30;6.00;;;;;;;41.50;16.41;100187.61;107283;1264;59248;-70
2023/07/04 07:46:49;;;;;;;10.20;6.30;;;;;;;41.64;16.30;100190.87;107252;1264;63285;-69
2023/07/04 07:49:16;;;;;;;8.50;5.20;;;;;;;41.66;16.34;100191.99;107325;1264;60342;-70
2023/07/04 07:51:44;;;;;;;7.30;5.60;;;;;;;41.67;16.54;100189.77;107195;1267;63904;-70
2023/07/04 07:54:13;;;;;;;12.30;5.50;;;;;;;41.86;16.24;100192.02;107305;1266;161251;-69
2023/07/04 07:56:44;;;;;;;9.10;5.60;;;;;;;41.88;16.13;100188.31;107367;1266;59150;-70
2023/07/04 07:59:12;;;;;;;8.30;5.60;;;;;;;42.36;16.48;100189.40;107331;1262;63335;-71
2023/07/04 08:01:39;;;;;;;9.00;5.40;;;;;;;43.07;15.76;100187.41;108879;1257;60173;-69
2023/07/04 08:04:07;;;;;;;13.00;5.80;;;;;;;43.42;15.45;100186.27;109247;1254;64177;-72
2023/07/04 08:06:37;;;;;;;7.00;4.90;;;;;;;43.46;15.09;100186.33;109035;1258;57327;-71
2023/07/04 08:09:07;;;;;;;19.10;6.40;;;;;;;42.90;14.93;100189.12;109243;1254;57406;-70
2023/07/04 08:11:35;;;;;;;13.40;5.90;;;;;;;42.37;15.35;100189.80;108975;1254;66146;-71
2023/07/04 08:14:02;;;;;;;9.00;5.20;;;;;;;42.23;15.60;100186.98;109210;1255;61798;-72
2023/07/04 08:16:39;;;;;;;9.70;5.60;;;;;;;42.38;15.55;100188.04;109083;1254;62467;-70
2023/07/04 08:19:06;;;;;;;10.20;5.70;;;;;;;42.54;15.40;100186.48;109218;1254;57423;-70
2023/07/04 08:21:34;;;;;;;17.90;6.40;;;;;;;42.80;15.03;100183.56;109226;1253;57490;-69
2023/07/04 08:24:02;;;;;;;13.80;5.90;;;;;;;42.93;14.82;100182.20;109221;1253;63044;-69
2023/07/04 08:26:32;;;;;;;9.10;5.50;;;;;;;42.79;14.74;100185.81;109261;1253;61346;-72
2023/07/04 08:28:59;;;;;;;11.70;5.70;;;;;;;42.85;14.66;100184.97;109110;1254;62492;-71
2023/07/04 08:31:27;;;;;;;9.70;5.90;;;;;;;42.93;14.91;100185.06;109056;1254;57418;-70
2023/07/04 08:33:55;;;;;;;11.20;5.70;;;;;;;42.99;14.68;100187.15;109077;1254;57399;-71
2023/07/04 08:36:22;;;;;;;9.70;5.30;;;;;;;43.30;15.02;100187.00;109145;1254;64166;-70
2023/07/04 08:38:50;;;;;;;13.50;6.40;;;;;;;43.40;14.38;100190.76;108986;1257;62151;-69
2023/07/04 08:41:36;;;;;;;11.80;5.60;;;;;;;43.35;14.09;100193.35;107806;1260;63725;-71
2023/07/04 08:44:25;;;;;;;9.60;5.40;;;;;;;43.41;14.23;100188.48;107675;1260;59551;-69
2023/07/04 08:46:54;;;;;;;8.70;4.80;;;;;;;43.56;14.23;100181.48;107643;1255;59508;-70
2023/07/04 08:49:29;;;;;;;11.60;5.90;;;;;;;43.61;14.33;100182.27;109079;1254;64162;-71
2023/07/04 08:52:34;;;;;;;13.10;5.50;;;;;;;43.89;14.28;100181.14;109013;1254;60195;-72
2023/07/04 08:55:02;;;;;;;12.20;5.50;;;;;;;44.52;14.06;100178.52;108114;1257;63742;-72
2023/07/04 08:57:38;;;;;;;8.40;5.30;;;;;;;44.43;13.83;100175.26;107907;1254;59482;-69
2023/07/04 09:00:08;;;;;;;10.60;5.90;;;;;;;44.06;13.66;100172.44;107779;1254;59532;-71
2023/07/04 09:02:39;;;;;;;;;;;;;;;44.14;13.58;100169.23;107884;1254;64148;-71
2023/07/04 09:05:18;;;;;;;10.00;5.40;;;;;;;44.18;13.79;100169.56;107906;1255;61352;-69
2023/07/04 09:08:17;;;;;;;11.90;5.20;;;;;;;43.85;13.76;100174.37;107878;1254;64033;-70
2023/07/04 09:10:49;;;;;;;9.20;5.30;;;;;;;43.34;14.18;100172.28;107782;1254;59477;-69
2023/07/04 09:13:30;;;;;;;10.70;5.60;;;;;;;43.32;14.31;100172.16;107891;1254;59440;-70
2023/07/04 09:15:58;;;;;;;8.10;4.80;;;;;;;43.49;14.36;100172.25;108110;1251;64281;-73
2023/07/04 09:19:05;;;;;;;10.30;5.60;;;;;;;43.59;14.15;100165.58;108157;1256;60103;-70
2023/07/04 09:21:33;;;;;;;10.20;5.60;;;;;;;43.36;14.04;100162.35;108148;1251;63725;-71
2023/07/04 09:24:03;;;;;;;13.50;5.60;;;;;;;43.13;14.10;100158.71;109364;1251;57307;-72
2023/07/04 09:26:41;;;;;;;8.60;5.10;;;;;;;42.97;14.47;100159.82;109340;1251;57385;-71
2023/07/04 09:29:08;;;;;;;8.70;5.60;;;;;;;42.75;14.55;100157.60;108601;1254;64374;-71
2023/07/04 09:31:40;;;;;;;10.70;6.10;;;;;;;42.82;14.43;100158.58;108007;1257;61361;-71
2023/07/04 09:34:31;;;;;;;9.90;5.50;;;;;;;43.20;14.39;100154.02;108064;1254;62511;-69
2023/07/04 09:37:01;;;;;;;9.80;5.50;;;;;;;43.56;14.06;100157.19;107969;1260;59641;-70
2023/07/04 09:39:49;;;;;;;7.50;5.70;;;;;;;43.44;14.00;100155.77;107975;1251;59637;-70
2023/07/04 09:42:21;;;;;;;8.00;5.20;;;;;;;43.36;14.31;100152.70;108088;1251;64402;-71
2023/07/04 09:45:11;;;;;;;10.30;5.60;;;;;;;43.68;13.96;100154.06;108008;1251;60222;-70
2023/07/04 09:47:44;;;;;;;8.50;5.40;;;;;;;43.70;13.77;100154.55;107976;1254;63747;-71
2023/07/04 09:50:23;;;;;;;9.00;5.60;;;;;;;43.75;14.09;100148.30;109330;1254;57350;-70
2023/07/04 09:53:02;;;;;;;7.20;4.80;;;;;;;44.44;13.95;100146.93;109334;1251;59255;-70
2023/07/04 09:55:30;;;;;;;8.20;5.60;;;;;;;44.18;13.89;100150.20;109297;1251;64151;-72
2023/07/04 09:58:17;;;;;;;11.70;5.40;;;;;;;43.67;14.30;100154.83;109376;1251;61365;-70
2023/07/04 10:00:46;;;;;;;14.00;5.50;;;;;;;43.29;14.43;100149.02;109410;1254;63198;-71
2023/07/04 10:03:15;;;;;;;8.90;5.40;;;;;;;43.26;14.51;100146.52;109140;1254;57386;-73
2023/07/04 10:05:44;;;;;;;10.00;6.00;;;;;;;43.39;14.59;100146.07;109170;1251;57450;-71
2023/07/04 10:08:12;;;;;;;8.50;5.00;;;;;;;42.78;15.01;100150.80;109166;1251;64260;-70
2023/07/04 10:10:44;;;;;;;9.70;5.90;;;;;;;42.00;15.18;100153.14;109264;1251;61373;-70
2023/07/04 10:13:12;;;;;;;7.70;5.10;;;;;;;42.18;14.98;100151.03;109169;1251;62407;-70
2023/07/04 10:15:43;;;;;;;10.30;5.40;;;;;;;42.20;15.11;100150.23;109270;1253;57399;-71
2023/07/04 10:18:30;;;;;;;8.10;5.40;;;;;;;42.30;15.20;100149.34;109358;1251;57653;-72
2023/07/04 10:20:59;;;;;;;10.30;5.60;;;;;;;42.74;14.94;100145.97;109349;1251;64136;-70
2023/07/04 10:23:28;;;;;;;16.20;6.30;;;;;;;43.20;14.65;100140.47;109332;1251;62170;-70
2023/07/04 10:25:57;;;;;;;11.30;5.70;;;;;;;43.32;14.57;100142.66;109327;1254;63806;-71
2023/07/04 10:28:26;;;;;;;9.00;5.40;;;;;;;43.38;14.52;100142.90;109297;1253;57461;-71
2023/07/04 10:30:56;;;;;;;9.60;5.30;;;;;;;43.84;14.88;100137.09;109308;1251;57782;-71
2023/07/04 10:33:37;;;;;;;;;;;;;;;43.90;14.13;100142.38;109401;1251;66237;-71
2023/07/04 10:36:06;;;;;;;9.60;5.80;;;;;;;43.70;13.94;100146.50;108535;1251;61632;-70
2023/07/04 10:38:41;;;;;;;10.60;6.10;;;;;;;43.78;14.06;100143.63;108011;1256;63815;-70
2023/07/04 10:41:25;;;;;;;10.10;5.80;;;;;;;44.35;13.55;100144.08;108051;1251;59157;-70
2023/07/04 10:43:56;;;;;;;8.60;5.60;;;;;;;44.27;13.71;100143.52;109255;1251;57549;-70
2023/07/04 10:46:25;;;;;;;8.00;5.40;;;;;;;44.35;13.88;100143.94;109226;1251;64133;-71
2023/07/04 10:48:58;;;;;;;8.60;5.70;;;;;;;44.29;13.31;100141.40;109162;1251;60106;-71
2023/07/04 10:51:29;;;;;;;10.90;5.70;;;;;;;44.18;13.69;100137.60;109348;1254;63878;-70
2023/07/04 10:53:57;;;;;;;7.70;4.70;;;;;;;43.84;14.01;100140.93;109237;1251;57458;-69
2023/07/04 10:56:34;;;;;;;8.00;5.80;;;;;;;43.81;14.00;100137.48;109407;1254;57412;-72
2023/07/04 10:59:12;;;;;;;10.70;5.00;;;;;;;44.00;14.25;100136.65;109247;1254;62934;-71
2023/07/04 11:01:41;;;;;;;8.50;5.10;;;;;;;44.55;13.47;100132.48;109362;1251;61443;-71
2023/07/04 11:04:10;;;;;;;9.90;5.40;;;;;;;45.10;13.15;100133.94;109340;1251;62437;-72
2023/07/04 11:06:43;;;;;;;10.80;5.90;;;;;;;45.22;12.94;100133.82;109295;1251;57689;-71
2023/07/04 11:09:14;;;;;;;10.40;6.10;;;;;;;45.55;12.61;100134.46;109253;1251;57675;-71
2023/07/04 11:11:47;;;;;;;9.20;5.60;;;;;;;45.50;12.84;100138.80;109333;1253;62846;-72
2023/07/04 11:14:23;;;;;;;6.50;4.80;;;;;;;44.62;13.03;100136.73;108896;1251;61387;-70
2023/07/04 11:16:51;;;;;;;13.00;5.20;;;;;;;44.52;12.73;100133.37;108101;1251;65752;-70
2023/07/04 11:19:19;;;;;;;6.50;5.00;;;;;;;44.09;12.88;100134.16;108018;1251;59485;-71
2023/07/04 11:22:00;;;;;;;8.30;5.20;;;;;;;43.80;13.33;100136.31;109327;1251;57872;-71
2023/07/04 11:24:39;;;;;;;7.60;5.20;;;;;;;43.67;13.28;100136.86;109402;1251;64145;-71
2023/07/04 11:27:14;;;;;;;8.90;5.50;;;;;;;43.83;13.23;100133.77;109380;1251;61287;-70
2023/07/04 11:30:02;;;;;;;8.20;5.70;;;;;;;43.15;13.66;100131.90;109351;1251;62478;-71
2023/07/04 11:32:40;;;;;;;11.10;5.70;;;;;;;42.83;13.96;100133.02;109276;1251;57623;-71
2023/07/04 11:35:11;;;;;;;8.80;5.40;;;;;;;42.63;14.12;100132.67;109357;1251;57701;-70
2023/07/04 11:37:51;;;;;;;8.40;5.60;;;;;;;42.14;14.47;100139.38;109398;1251;64185;-70
2023/07/04 11:40:19;;;;;;;10.10;5.70;;;;;;;42.05;15.14;100131.90;109256;1251;60270;-70